sensor_id;sensor_type;location;lat;lon;timestamp;P1;P2;P0
84339;PMS7003;74521;45.618;5.212;2024-03-25T00:01:47;3.50;3.00;2.00
84339;PMS7003;74521;45.618;5.212;2024-03-25T00:04:14;3.75;2.25;2.00
84339;PMS7003;74521;45.618;5.212;2024-03-25T00:06:41;3.50;2.25;1.50
84339;PMS7003;74521;45.618;5.212;2024-03-25T00:09:07;4.00;2.75;2.25
84339;PMS7003;74521;45.618;5.212;2024-03-25T00:11:38;3.50;2.75;2.00
84339;PMS7003;74521;45.618;5.212;2024-03-25T00:14:05;3.00;3.00;2.75
84339;PMS7003;74521;45.618;5.212;2024-03-25T00:16:31;4.75;2.50;2.00
84339;PMS7003;74521;45.618;5.212;2024-03-25T00:18:57;3.00;2.50;2.00
84339;PMS7003;74521;45.618;5.212;2024-03-25T00:21:23;3.00;3.00;2.00
84339;PMS7003;74521;45.618;5.212;2024-03-25T00:23:51;4.00;2.00;2.00
84339;PMS7003;74521;45.618;5.212;2024-03-25T00:26:17;3.00;3.00;3.00
84339;PMS7003;74521;45.618;5.212;2024-03-25T00:28:43;3.00;3.00;2.50
84339;PMS7003;74521;45.618;5.212;2024-03-25T00:31:09;2.50;2.50;2.00
84339;PMS7003;74521;45.618;5.212;2024-03-25T00:33:36;4.75;3.50;2.75
84339;PMS7003;74521;45.618;5.212;2024-03-25T00:36:01;4.75;4.00;2.75
84339;PMS7003;74521;45.618;5.212;2024-03-25T00:38:28;3.25;3.00;2.00
84339;PMS7003;74521;45.618;5.212;2024-03-25T00:40:55;2.00;2.00;2.00
84339;PMS7003;74521;45.618;5.212;2024-03-25T00:43:22;3.00;3.00;3.00
84339;PMS7003;74521;45.618;5.212;2024-03-25T00:45:48;2.25;2.25;2.00
84339;PMS7003;74521;45.618;5.212;2024-03-25T00:48:15;2.75;2.75;1.75
84339;PMS7003;74521;45.618;5.212;2024-03-25T00:50:40;2.00;2.00;2.00
84339;PMS7003;74521;45.618;5.212;2024-03-25T00:53:07;3.75;2.75;2.00
84339;PMS7003;74521;45.618;5.212;2024-03-25T00:55:33;3.75;2.00;2.00
84339;PMS7003;74521;45.618;5.212;2024-03-25T00:58:01;3.50;2.00;2.00
84339;PMS7003;74521;45.618;5.212;2024-03-25T01:00:27;2.00;2.00;2.00
84339;PMS7003;74521;45.618;5.212;2024-03-25T01:02:54;3.00;3.00;2.00
84339;PMS7003;74521;45.618;5.212;2024-03-25T01:05:20;2.00;2.00;2.00
84339;PMS7003;74521;45.618;5.212;2024-03-25T01:07:46;3.00;1.75;1.50
84339;PMS7003;74521;45.618;5.212;2024-03-25T01:10:12;2.00;2.00;1.50
84339;PMS7003;74521;45.618;5.212;2024-03-25T01:12:39;3.00;3.00;3.00
84339;PMS7003;74521;45.618;5.212;2024-03-25T01:15:07;2.75;2.75;2.00
84339;PMS7003;74521;45.618;5.212;2024-03-25T01:17:35;2.50;2.50;2.25
84339;PMS7003;74521;45.618;5.212;2024-03-25T01:20:00;3.00;1.50;1.50
84339;PMS7003;74521;45.618;5.212;2024-03-25T01:22:28;2.00;2.00;1.00
84339;PMS7003;74521;45.618;5.212;2024-03-25T01:24:54;3.00;3.00;2.00
84339;PMS7003;74521;45.618;5.212;2024-03-25T01:27:20;4.00;3.00;2.75
84339;PMS7003;74521;45.618;5.212;2024-03-25T01:29:46;2.00;2.00;2.00
84339;PMS7003;74521;45.618;5.212;2024-03-25T01:32:14;2.00;2.00;2.00
84339;PMS7003;74521;45.618;5.212;2024-03-25T01:34:40;4.75;3.00;2.50
84339;PMS7003;74521;45.618;5.212;2024-03-25T01:37:07;3.75;3.75;2.00
84339;PMS7003;74521;45.618;5.212;2024-03-25T01:39:32;3.00;3.00;3.00
84339;PMS7003;74521;45.618;5.212;2024-03-25T01:41:59;5.50;3.50;3.00
84339;PMS7003;74521;45.618;5.212;2024-03-25T01:44:25;3.50;2.00;2.00
84339;PMS7003;74521;45.618;5.212;2024-03-25T01:46:51;4.00;2.25;2.00
84339;PMS7003;74521;45.618;5.212;2024-03-25T01:49:19;6.25;2.75;2.25
84339;PMS7003;74521;45.618;5.212;2024-03-25T01:51:46;3.75;2.00;2.00
84339;PMS7003;74521;45.618;5.212;2024-03-25T01:54:11;3.00;3.00;2.50
84339;PMS7003;74521;45.618;5.212;2024-03-25T01:56:41;2.00;2.00;1.00
84339;PMS7003;74521;45.618;5.212;2024-03-25T01:59:08;2.00;2.00;1.50
84339;PMS7003;74521;45.618;5.212;2024-03-25T02:01:36;2.00;2.00;1.50
84339;PMS7003;74521;45.618;5.212;2024-03-25T02:04:03;2.00;2.00;1.75
84339;PMS7003;74521;45.618;5.212;2024-03-25T02:06:30;2.00;2.00;2.00
84339;PMS7003;74521;45.618;5.212;2024-03-25T02:08:57;3.00;3.00;2.50
84339;PMS7003;74521;45.618;5.212;2024-03-25T02:11:23;2.00;2.00;1.25
84339;PMS7003;74521;45.618;5.212;2024-03-25T02:13:51;2.00;2.00;1.25
84339;PMS7003;74521;45.618;5.212;2024-03-25T02:16:17;3.00;3.00;2.50
84339;PMS7003;74521;45.618;5.212;2024-03-25T02:18:43;2.00;2.00;1.00
84339;PMS7003;74521;45.618;5.212;2024-03-25T02:21:09;2.00;2.00;2.00
84339;PMS7003;74521;45.618;5.212;2024-03-25T02:23:38;2.00;2.00;2.00
84339;PMS7003;74521;45.618;5.212;2024-03-25T02:26:07;1.00;1.00;1.00
84339;PMS7003;74521;45.618;5.212;2024-03-25T02:28:34;4.00;2.00;2.00
84339;PMS7003;74521;45.618;5.212;2024-03-25T02:31:00;3.50;2.00;1.75
84339;PMS7003;74521;45.618;5.212;2024-03-25T02:33:26;2.00;2.00;2.00
84339;PMS7003;74521;45.618;5.212;2024-03-25T02:35:55;2.00;2.00;2.00
84339;PMS7003;74521;45.618;5.212;2024-03-25T02:38:21;2.50;1.75;1.25
84339;PMS7003;74521;45.618;5.212;2024-03-25T02:40:48;3.50;1.75;1.25
84339;PMS7003;74521;45.618;5.212;2024-03-25T02:43:17;1.75;1.75;1.00
84339;PMS7003;74521;45.618;5.212;2024-03-25T02:45:46;1.75;1.75;1.00
84339;PMS7003;74521;45.618;5.212;2024-03-25T02:48:13;2.00;2.00;2.00
84339;PMS7003;74521;45.618;5.212;2024-03-25T02:50:38;3.00;3.00;2.75
84339;PMS7003;74521;45.618;5.212;2024-03-25T02:53:05;1.25;1.25;1.25
84339;PMS7003;74521;45.618;5.212;2024-03-25T02:55:31;2.50;2.00;2.00
84339;PMS7003;74521;45.618;5.212;2024-03-25T02:57:58;1.75;1.75;1.75
84339;PMS7003;74521;45.618;5.212;2024-03-25T03:00:25;2.00;2.00;2.00
84339;PMS7003;74521;45.618;5.212;2024-03-25T03:02:53;2.50;1.25;1.00
84339;PMS7003;74521;45.618;5.212;2024-03-25T03:05:19;2.50;2.00;1.75
84339;PMS7003;74521;45.618;5.212;2024-03-25T03:07:46;2.00;2.00;2.00
84339;PMS7003;74521;45.618;5.212;2024-03-25T03:10:11;2.00;2.00;2.00
84339;PMS7003;74521;45.618;5.212;2024-03-25T03:12:38;3.00;2.00;2.00
84339;PMS7003;74521;45.618;5.212;2024-03-25T03:15:04;4.75;2.00;1.50
84339;PMS7003;74521;45.618;5.212;2024-03-25T03:17:33;1.25;1.25;1.00
84339;PMS7003;74521;45.618;5.212;2024-03-25T03:19:59;2.00;2.00;1.50
84339;PMS7003;74521;45.618;5.212;2024-03-25T03:22:25;1.00;1.00;1.00
84339;PMS7003;74521;45.618;5.212;2024-03-25T03:24:51;1.25;1.25;1.25
84339;PMS7003;74521;45.618;5.212;2024-03-25T03:27:18;2.00;2.00;2.00
84339;PMS7003;74521;45.618;5.212;2024-03-25T03:29:43;4.00;2.00;1.75
84339;PMS7003;74521;45.618;5.212;2024-03-25T03:32:10;1.00;1.00;1.00
84339;PMS7003;74521;45.618;5.212;2024-03-25T03:34:37;3.00;2.25;2.00
84339;PMS7003;74521;45.618;5.212;2024-03-25T03:37:04;3.00;3.00;2.00
84339;PMS7003;74521;45.618;5.212;2024-03-25T03:39:29;3.00;1.00;1.00
84339;PMS7003;74521;45.618;5.212;2024-03-25T03:41:56;3.00;2.00;1.75
84339;PMS7003;74521;45.618;5.212;2024-03-25T03:44:22;2.00;2.00;2.00
84339;PMS7003;74521;45.618;5.212;2024-03-25T03:46:48;1.00;1.00;1.00
84339;PMS7003;74521;45.618;5.212;2024-03-25T03:49:14;4.25;2.00;2.00
84339;PMS7003;74521;45.618;5.212;2024-03-25T03:51:42;1.75;1.75;1.00
84339;PMS7003;74521;45.618;5.212;2024-03-25T03:54:08;3.00;3.00;2.00
84339;PMS7003;74521;45.618;5.212;2024-03-25T03:56:34;3.00;1.00;1.00
84339;PMS7003;74521;45.618;5.212;2024-03-25T03:59:00;1.50;1.50;1.00
84339;PMS7003;74521;45.618;5.212;2024-03-25T04:01:26;3.00;2.00;1.50
84339;PMS7003;74521;45.618;5.212;2024-03-25T04:03:52;1.00;1.00;1.00
84339;PMS7003;74521;45.618;5.212;2024-03-25T04:06:19;2.75;2.00;2.00
84339;PMS7003;74521;45.618;5.212;2024-03-25T04:08:46;1.00;1.00;1.00
84339;PMS7003;74521;45.618;5.212;2024-03-25T04:11:12;1.00;1.00;1.00
84339;PMS7003;74521;45.618;5.212;2024-03-25T04:13:38;3.00;1.75;1.25
84339;PMS7003;74521;45.618;5.212;2024-03-25T04:16:05;1.00;1.00;1.00
84339;PMS7003;74521;45.618;5.212;2024-03-25T04:18:32;3.00;2.00;1.00
84339;PMS7003;74521;45.618;5.212;2024-03-25T04:20:59;2.50;1.00;1.00
84339;PMS7003;74521;45.618;5.212;2024-03-25T04:23:25;1.00;1.00;1.00
84339;PMS7003;74521;45.618;5.212;2024-03-25T04:25:54;1.75;1.00;1.00
84339;PMS7003;74521;45.618;5.212;2024-03-25T04:28:20;2.25;2.25;2.00
84339;PMS7003;74521;45.618;5.212;2024-03-25T04:30:50;1.25;1.25;1.00
84339;PMS7003;74521;45.618;5.212;2024-03-25T04:33:17;4.50;2.25;1.50
84339;PMS7003;74521;45.618;5.212;2024-03-25T04:35:44;2.50;1.75;1.75
84339;PMS7003;74521;45.618;5.212;2024-03-25T04:38:10;3.00;1.50;1.00
84339;PMS7003;74521;45.618;5.212;2024-03-25T04:40:36;1.00;1.00;1.00
84339;PMS7003;74521;45.618;5.212;2024-03-25T04:43:03;1.25;1.25;1.00
84339;PMS7003;74521;45.618;5.212;2024-03-25T04:45:29;4.50;1.25;1.00
84339;PMS7003;74521;45.618;5.212;2024-03-25T04:47:55;2.50;1.00;1.00
84339;PMS7003;74521;45.618;5.212;2024-03-25T04:50:20;0.50;0.50;0.00
84339;PMS7003;74521;45.618;5.212;2024-03-25T04:52:46;1.00;1.00;1.00
84339;PMS7003;74521;45.618;5.212;2024-03-25T04:55:12;1.00;1.00;1.00
84339;PMS7003;74521;45.618;5.212;2024-03-25T04:57:37;1.50;1.00;1.00
84339;PMS7003;74521;45.618;5.212;2024-03-25T05:00:05;2.00;1.00;1.00
84339;PMS7003;74521;45.618;5.212;2024-03-25T05:02:32;1.00;1.00;1.00
84339;PMS7003;74521;45.618;5.212;2024-03-25T05:04:57;1.00;1.00;1.00
84339;PMS7003;74521;45.618;5.212;2024-03-25T05:07:23;3.25;1.25;1.00
84339;PMS7003;74521;45.618;5.212;2024-03-25T05:09:49;1.00;1.00;1.00
84339;PMS7003;74521;45.618;5.212;2024-03-25T05:12:14;2.00;2.00;1.50
84339;PMS7003;74521;45.618;5.212;2024-03-25T05:14:40;1.00;1.00;1.00
84339;PMS7003;74521;45.618;5.212;2024-03-25T05:17:07;1.25;1.25;1.00
84339;PMS7003;74521;45.618;5.212;2024-03-25T05:19:33;1.00;1.00;1.00
84339;PMS7003;74521;45.618;5.212;2024-03-25T05:21:59;4.00;1.00;1.00
84339;PMS7003;74521;45.618;5.212;2024-03-25T05:24:25;2.50;1.00;1.00
84339;PMS7003;74521;45.618;5.212;2024-03-25T05:26:51;1.50;1.00;1.00
84339;PMS7003;74521;45.618;5.212;2024-03-25T05:29:16;4.00;1.00;1.00
84339;PMS7003;74521;45.618;5.212;2024-03-25T05:31:56;2.50;1.00;1.00
84339;PMS7003;74521;45.618;5.212;2024-03-25T05:34:25;1.25;1.25;1.00
84339;PMS7003;74521;45.618;5.212;2024-03-25T05:36:55;1.75;1.75;1.00
84339;PMS7003;74521;45.618;5.212;2024-03-25T05:39:21;1.33;1.33;1.00
84339;PMS7003;74521;45.618;5.212;2024-03-25T05:41:46;1.00;1.00;1.00
84339;PMS7003;74521;45.618;5.212;2024-03-25T05:44:12;0.75;0.75;0.75
84339;PMS7003;74521;45.618;5.212;2024-03-25T05:46:38;1.50;1.00;1.00
84339;PMS7003;74521;45.618;5.212;2024-03-25T05:49:04;1.25;1.25;1.00
84339;PMS7003;74521;45.618;5.212;2024-03-25T05:51:32;3.00;1.00;1.00
84339;PMS7003;74521;45.618;5.212;2024-03-25T05:53:58;1.25;1.25;1.00
84339;PMS7003;74521;45.618;5.212;2024-03-25T05:56:24;1.00;1.00;1.00
84339;PMS7003;74521;45.618;5.212;2024-03-25T05:58:50;3.00;2.00;1.75
84339;PMS7003;74521;45.618;5.212;2024-03-25T06:01:16;1.50;1.00;1.00
84339;PMS7003;74521;45.618;5.212;2024-03-25T06:03:41;2.50;2.00;2.00
84339;PMS7003;74521;45.618;5.212;2024-03-25T06:06:07;2.50;2.00;2.00
84339;PMS7003;74521;45.618;5.212;2024-03-25T06:08:34;2.25;0.75;0.50
84339;PMS7003;74521;45.618;5.212;2024-03-25T06:11:00;1.00;1.00;1.00
84339;PMS7003;74521;45.618;5.212;2024-03-25T06:13:27;1.00;1.00;1.00
84339;PMS7003;74521;45.618;5.212;2024-03-25T06:15:52;5.00;2.00;1.75
84339;PMS7003;74521;45.618;5.212;2024-03-25T06:18:18;2.50;2.00;1.00
84339;PMS7003;74521;45.618;5.212;2024-03-25T06:20:44;3.00;1.00;1.00
84339;PMS7003;74521;45.618;5.212;2024-03-25T06:23:10;3.75;1.00;1.00
84339;PMS7003;74521;45.618;5.212;2024-03-25T06:25:37;3.00;1.75;1.00
84339;PMS7003;74521;45.618;5.212;2024-03-25T06:28:02;1.00;1.00;1.00
84339;PMS7003;74521;45.618;5.212;2024-03-25T06:30:29;2.00;2.00;1.00
84339;PMS7003;74521;45.618;5.212;2024-03-25T06:33:13;1.00;1.00;1.00
84339;PMS7003;74521;45.618;5.212;2024-03-25T06:35:56;3.25;1.00;1.00
84339;PMS7003;74521;45.618;5.212;2024-03-25T06:38:22;2.00;2.00;1.50
84339;PMS7003;74521;45.618;5.212;2024-03-25T06:40:49;2.00;2.00;1.50
84339;PMS7003;74521;45.618;5.212;2024-03-25T06:43:15;2.00;2.00;2.00
84339;PMS7003;74521;45.618;5.212;2024-03-25T06:45:41;2.00;2.00;1.25
84339;PMS7003;74521;45.618;5.212;2024-03-25T06:48:06;2.00;2.00;1.00
84339;PMS7003;74521;45.618;5.212;2024-03-25T06:50:32;5.00;2.00;2.00
84339;PMS7003;74521;45.618;5.212;2024-03-25T06:52:58;3.00;1.00;1.00
84339;PMS7003;74521;45.618;5.212;2024-03-25T06:55:24;1.00;1.00;1.00
84339;PMS7003;74521;45.618;5.212;2024-03-25T06:57:51;2.50;2.50;2.00
84339;PMS7003;74521;45.618;5.212;2024-03-25T07:00:17;2.25;2.25;2.00
84339;PMS7003;74521;45.618;5.212;2024-03-25T07:02:43;2.50;2.00;2.00
84339;PMS7003;74521;45.618;5.212;2024-03-25T07:05:09;2.00;2.00;2.00
84339;PMS7003;74521;45.618;5.212;2024-03-25T07:07:35;2.00;2.00;2.00
84339;PMS7003;74521;45.618;5.212;2024-03-25T07:10:00;2.00;2.00;2.00
84339;PMS7003;74521;45.618;5.212;2024-03-25T07:12:26;2.50;2.00;1.50
84339;PMS7003;74521;45.618;5.212;2024-03-25T07:14:54;3.50;2.00;2.00
84339;PMS7003;74521;45.618;5.212;2024-03-25T07:17:19;5.75;3.00;2.00
84339;PMS7003;74521;45.618;5.212;2024-03-25T07:19:45;1.50;1.50;1.25
84339;PMS7003;74521;45.618;5.212;2024-03-25T07:22:11;1.25;1.25;1.00
84339;PMS7003;74521;45.618;5.212;2024-03-25T07:24:37;2.00;2.00;2.00
84339;PMS7003;74521;45.618;5.212;2024-03-25T07:27:02;4.00;2.00;2.00
84339;PMS7003;74521;45.618;5.212;2024-03-25T07:29:28;2.00;2.00;2.00
84339;PMS7003;74521;45.618;5.212;2024-03-25T07:31:55;4.00;2.75;2.00
84339;PMS7003;74521;45.618;5.212;2024-03-25T07:34:21;5.00;3.00;2.00
84339;PMS7003;74521;45.618;5.212;2024-03-25T07:36:47;2.75;2.00;2.00
84339;PMS7003;74521;45.618;5.212;2024-03-25T07:39:13;3.50;2.75;2.00
84339;PMS7003;74521;45.618;5.212;2024-03-25T07:41:38;3.00;2.00;2.00
84339;PMS7003;74521;45.618;5.212;2024-03-25T07:44:04;5.50;2.75;2.00
84339;PMS7003;74521;45.618;5.212;2024-03-25T07:46:30;5.50;2.75;2.00
84339;PMS7003;74521;45.618;5.212;2024-03-25T07:48:57;4.00;3.00;2.00
84339;PMS7003;74521;45.618;5.212;2024-03-25T07:51:23;3.25;2.00;2.00
84339;PMS7003;74521;45.618;5.212;2024-03-25T07:53:49;2.00;2.00;2.00
84339;PMS7003;74521;45.618;5.212;2024-03-25T07:56:15;2.25;2.25;2.00
84339;PMS7003;74521;45.618;5.212;2024-03-25T07:58:41;6.00;3.00;2.00
84339;PMS7003;74521;45.618;5.212;2024-03-25T08:01:07;3.25;3.25;2.25
84339;PMS7003;74521;45.618;5.212;2024-03-25T08:03:33;3.25;2.25;2.00
84339;PMS7003;74521;45.618;5.212;2024-03-25T08:06:00;2.00;2.00;2.00
84339;PMS7003;74521;45.618;5.212;2024-03-25T08:08:26;1.00;1.00;1.00
84339;PMS7003;74521;45.618;5.212;2024-03-25T08:10:51;1.50;1.00;1.00
84339;PMS7003;74521;45.618;5.212;2024-03-25T08:13:17;2.75;1.50;1.00
84339;PMS7003;74521;45.618;5.212;2024-03-25T08:15:43;3.50;2.50;2.00
84339;PMS7003;74521;45.618;5.212;2024-03-25T08:18:09;4.25;2.75;2.00
84339;PMS7003;74521;45.618;5.212;2024-03-25T08:20:34;2.50;2.00;1.25
84339;PMS7003;74521;45.618;5.212;2024-03-25T08:23:01;2.75;2.75;2.25
84339;PMS7003;74521;45.618;5.212;2024-03-25T08:25:27;2.00;2.00;1.00
84339;PMS7003;74521;45.618;5.212;2024-03-25T08:27:53;2.00;2.00;1.50
84339;PMS7003;74521;45.618;5.212;2024-03-25T08:30:19;3.00;3.00;2.00
84339;PMS7003;74521;45.618;5.212;2024-03-25T08:32:44;7.75;4.00;3.50
84339;PMS7003;74521;45.618;5.212;2024-03-25T08:35:10;9.50;5.00;3.25
84339;PMS7003;74521;45.618;5.212;2024-03-25T08:37:36;9.25;5.00;3.00
84339;PMS7003;74521;45.618;5.212;2024-03-25T08:40:03;2.00;2.00;1.00
84339;PMS7003;74521;45.618;5.212;2024-03-25T08:42:30;3.00;3.00;3.00
84339;PMS7003;74521;45.618;5.212;2024-03-25T08:44:55;4.00;2.75;2.00
84339;PMS7003;74521;45.618;5.212;2024-03-25T08:47:21;4.00;2.00;2.00
84339;PMS7003;74521;45.618;5.212;2024-03-25T08:49:47;6.25;3.75;3.00
84339;PMS7003;74521;45.618;5.212;2024-03-25T08:52:12;4.50;3.25;2.50
84339;PMS7003;74521;45.618;5.212;2024-03-25T08:54:38;4.00;2.00;1.75
84339;PMS7003;74521;45.618;5.212;2024-03-25T08:57:05;3.25;3.00;2.00
84339;PMS7003;74521;45.618;5.212;2024-03-25T08:59:31;3.00;3.00;2.00
84339;PMS7003;74521;45.618;5.212;2024-03-25T09:01:56;5.25;3.50;2.25
84339;PMS7003;74521;45.618;5.212;2024-03-25T09:04:22;3.00;3.00;2.00
84339;PMS7003;74521;45.618;5.212;2024-03-25T09:06:48;5.00;3.00;2.75
84339;PMS7003;74521;45.618;5.212;2024-03-25T09:09:13;1.00;1.00;1.00
84339;PMS7003;74521;45.618;5.212;2024-03-25T09:11:57;4.75;2.25;2.00
84339;PMS7003;74521;45.618;5.212;2024-03-25T09:14:24;4.75;2.00;2.00
84339;PMS7003;74521;45.618;5.212;2024-03-25T09:16:50;1.00;1.00;1.00
84339;PMS7003;74521;45.618;5.212;2024-03-25T09:19:16;2.25;2.25;1.50
84339;PMS7003;74521;45.618;5.212;2024-03-25T09:21:41;2.50;2.50;2.00
84339;PMS7003;74521;45.618;5.212;2024-03-25T09:24:07;2.00;2.00;2.00
84339;PMS7003;74521;45.618;5.212;2024-03-25T09:26:33;2.50;1.75;1.25
84339;PMS7003;74521;45.618;5.212;2024-03-25T09:28:58;2.75;2.25;2.00
84339;PMS7003;74521;45.618;5.212;2024-03-25T09:31:26;1.00;1.00;1.00
84339;PMS7003;74521;45.618;5.212;2024-03-25T09:33:51;1.00;1.00;1.00
84339;PMS7003;74521;45.618;5.212;2024-03-25T09:36:17;1.50;1.50;1.00
84339;PMS7003;74521;45.618;5.212;2024-03-25T09:38:43;2.00;2.00;1.00
84339;PMS7003;74521;45.618;5.212;2024-03-25T09:41:08;1.00;1.00;1.00
84339;PMS7003;74521;45.618;5.212;2024-03-25T09:43:37;2.50;2.00;2.00
84339;PMS7003;74521;45.618;5.212;2024-03-25T09:46:08;1.00;1.00;1.00
84339;PMS7003;74521;45.618;5.212;2024-03-25T09:48:36;2.00;1.00;1.00
84339;PMS7003;74521;45.618;5.212;2024-03-25T09:51:03;1.00;1.00;1.00
84339;PMS7003;74521;45.618;5.212;2024-03-25T09:53:29;0.75;0.75;0.50
84339;PMS7003;74521;45.618;5.212;2024-03-25T09:55:55;2.50;1.50;1.00
84339;PMS7003;74521;45.618;5.212;2024-03-25T09:58:22;1.00;1.00;1.00
84339;PMS7003;74521;45.618;5.212;2024-03-25T10:00:49;1.75;1.75;1.00
84339;PMS7003;74521;45.618;5.212;2024-03-25T10:03:15;1.00;1.00;0.75
84339;PMS7003;74521;45.618;5.212;2024-03-25T10:05:42;0.75;0.75;0.75
84339;PMS7003;74521;45.618;5.212;2024-03-25T10:08:08;4.00;0.50;0.00
84339;PMS7003;74521;45.618;5.212;2024-03-25T10:10:34;1.00;1.00;0.00
84339;PMS7003;74521;45.618;5.212;2024-03-25T10:12:59;0.00;0.00;0.00
84339;PMS7003;74521;45.618;5.212;2024-03-25T10:15:26;0.00;0.00;0.00
84339;PMS7003;74521;45.618;5.212;2024-03-25T10:17:52;1.00;1.00;1.00
84339;PMS7003;74521;45.618;5.212;2024-03-25T10:20:18;1.00;1.00;0.00
84339;PMS7003;74521;45.618;5.212;2024-03-25T10:22:45;1.00;1.00;1.00
84339;PMS7003;74521;45.618;5.212;2024-03-25T10:25:21;0.00;0.00;0.00
84339;PMS7003;74521;45.618;5.212;2024-03-25T10:27:54;0.00;0.00;0.00
84339;PMS7003;74521;45.618;5.212;2024-03-25T10:30:20;1.00;0.00;0.00
84339;PMS7003;74521;45.618;5.212;2024-03-25T10:32:46;0.00;0.00;0.00
84339;PMS7003;74521;45.618;5.212;2024-03-25T10:35:24;0.00;0.00;0.00
84339;PMS7003;74521;45.618;5.212;2024-03-25T10:37:53;2.00;0.00;0.00
84339;PMS7003;74521;45.618;5.212;2024-03-25T10:40:21;0.00;0.00;0.00
84339;PMS7003;74521;45.618;5.212;2024-03-25T10:42:48;0.00;0.00;0.00
84339;PMS7003;74521;45.618;5.212;2024-03-25T10:45:15;2.00;0.00;0.00
84339;PMS7003;74521;45.618;5.212;2024-03-25T10:47:41;0.00;0.00;0.00
84339;PMS7003;74521;45.618;5.212;2024-03-25T10:50:08;0.00;0.00;0.00
84339;PMS7003;74521;45.618;5.212;2024-03-25T10:52:37;1.00;1.00;0.75
84339;PMS7003;74521;45.618;5.212;2024-03-25T10:55:05;0.00;0.00;0.00
84339;PMS7003;74521;45.618;5.212;2024-03-25T10:57:32;0.00;0.00;0.00
84339;PMS7003;74521;45.618;5.212;2024-03-25T10:59:59;0.00;0.00;0.00
84339;PMS7003;74521;45.618;5.212;2024-03-25T11:02:28;0.00;0.00;0.00
84339;PMS7003;74521;45.618;5.212;2024-03-25T11:04:55;0.25;0.25;0.00
84339;PMS7003;74521;45.618;5.212;2024-03-25T11:07:28;0.00;0.00;0.00
84339;PMS7003;74521;45.618;5.212;2024-03-25T11:10:01;0.00;0.00;0.00
84339;PMS7003;74521;45.618;5.212;2024-03-25T11:12:34;2.00;0.00;0.00
84339;PMS7003;74521;45.618;5.212;2024-03-25T11:15:00;0.00;0.00;0.00
84339;PMS7003;74521;45.618;5.212;2024-03-25T11:17:27;0.50;0.00;0.00
84339;PMS7003;74521;45.618;5.212;2024-03-25T11:19:53;0.00;0.00;0.00
84339;PMS7003;74521;45.618;5.212;2024-03-25T11:22:23;0.00;0.00;0.00
84339;PMS7003;74521;45.618;5.212;2024-03-25T11:24:50;2.25;0.00;0.00
84339;PMS7003;74521;45.618;5.212;2024-03-25T11:27:21;0.00;0.00;0.00
84339;PMS7003;74521;45.618;5.212;2024-03-25T11:29:48;0.00;0.00;0.00
84339;PMS7003;74521;45.618;5.212;2024-03-25T11:32:14;0.00;0.00;0.00
84339;PMS7003;74521;45.618;5.212;2024-03-25T11:34:49;0.50;0.00;0.00
84339;PMS7003;74521;45.618;5.212;2024-03-25T11:37:15;0.75;0.75;0.00
84339;PMS7003;74521;45.618;5.212;2024-03-25T11:39:42;0.00;0.00;0.00
84339;PMS7003;74521;45.618;5.212;2024-03-25T11:42:08;0.00;0.00;0.00
84339;PMS7003;74521;45.618;5.212;2024-03-25T11:44:35;1.00;0.00;0.00
84339;PMS7003;74521;45.618;5.212;2024-03-25T11:47:04;0.00;0.00;0.00
84339;PMS7003;74521;45.618;5.212;2024-03-25T11:49:30;0.00;0.00;0.00
84339;PMS7003;74521;45.618;5.212;2024-03-25T11:51:58;0.00;0.00;0.00
84339;PMS7003;74521;45.618;5.212;2024-03-25T11:54:25;0.50;0.00;0.00
84339;PMS7003;74521;45.618;5.212;2024-03-25T11:56:52;0.00;0.00;0.00
84339;PMS7003;74521;45.618;5.212;2024-03-25T11:59:19;0.00;0.00;0.00
84339;PMS7003;74521;45.618;5.212;2024-03-25T12:01:44;0.00;0.00;0.00
84339;PMS7003;74521;45.618;5.212;2024-03-25T12:04:12;0.00;0.00;0.00
84339;PMS7003;74521;45.618;5.212;2024-03-25T12:06:41;0.00;0.00;0.00
84339;PMS7003;74521;45.618;5.212;2024-03-25T12:09:06;0.00;0.00;0.00
84339;PMS7003;74521;45.618;5.212;2024-03-25T12:11:51;0.00;0.00;0.00
84339;PMS7003;74521;45.618;5.212;2024-03-25T12:14:17;0.00;0.00;0.00
84339;PMS7003;74521;45.618;5.212;2024-03-25T12:16:43;0.00;0.00;0.00
84339;PMS7003;74521;45.618;5.212;2024-03-25T12:19:08;0.00;0.00;0.00
84339;PMS7003;74521;45.618;5.212;2024-03-25T12:21:36;0.00;0.00;0.00
84339;PMS7003;74521;45.618;5.212;2024-03-25T12:24:02;0.00;0.00;0.00
84339;PMS7003;74521;45.618;5.212;2024-03-25T12:26:28;2.00;0.25;0.00
84339;PMS7003;74521;45.618;5.212;2024-03-25T12:28:56;0.25;0.00;0.00
84339;PMS7003;74521;45.618;5.212;2024-03-25T12:31:23;1.00;1.00;0.00
84339;PMS7003;74521;45.618;5.212;2024-03-25T12:33:49;2.75;2.75;2.00
84339;PMS7003;74521;45.618;5.212;2024-03-25T12:36:15;3.50;3.50;2.75
84339;PMS7003;74521;45.618;5.212;2024-03-25T12:38:42;3.00;3.00;2.00
84339;PMS7003;74521;45.618;5.212;2024-03-25T12:41:08;5.50;2.00;2.00
84339;PMS7003;74521;45.618;5.212;2024-03-25T12:43:35;2.00;2.00;2.00
84339;PMS7003;74521;45.618;5.212;2024-03-25T12:46:02;4.50;1.75;1.50
84339;PMS7003;74521;45.618;5.212;2024-03-25T12:48:28;5.25;2.75;2.00
84339;PMS7003;74521;45.618;5.212;2024-03-25T12:50:54;1.75;1.00;1.00
84339;PMS7003;74521;45.618;5.212;2024-03-25T12:53:19;2.50;1.00;1.00
84339;PMS7003;74521;45.618;5.212;2024-03-25T12:55:47;7.00;1.50;1.00
84339;PMS7003;74521;45.618;5.212;2024-03-25T12:58:13;1.00;1.00;1.00
84339;PMS7003;74521;45.618;5.212;2024-03-25T13:00:38;2.00;2.00;1.00
84339;PMS7003;74521;45.618;5.212;2024-03-25T13:03:05;2.00;0.75;0.00
84339;PMS7003;74521;45.618;5.212;2024-03-25T13:05:31;3.00;2.00;1.00
84339;PMS7003;74521;45.618;5.212;2024-03-25T13:07:57;2.00;1.50;1.00
84339;PMS7003;74521;45.618;5.212;2024-03-25T13:10:22;1.00;1.00;0.75
84339;PMS7003;74521;45.618;5.212;2024-03-25T13:12:50;1.00;1.00;1.00
84339;PMS7003;74521;45.618;5.212;2024-03-25T13:15:15;1.00;1.00;0.00
84339;PMS7003;74521;45.618;5.212;2024-03-25T13:17:41;0.25;0.25;0.25
84339;PMS7003;74521;45.618;5.212;2024-03-25T13:20:07;0.50;0.50;0.25
84339;PMS7003;74521;45.618;5.212;2024-03-25T13:22:33;0.75;0.00;0.00
84339;PMS7003;74521;45.618;5.212;2024-03-25T13:24:59;2.00;0.75;0.00
84339;PMS7003;74521;45.618;5.212;2024-03-25T13:27:25;4.00;1.00;1.00
84339;PMS7003;74521;45.618;5.212;2024-03-25T13:29:53;1.00;1.00;0.25
84339;PMS7003;74521;45.618;5.212;2024-03-25T13:32:18;0.00;0.00;0.00
84339;PMS7003;74521;45.618;5.212;2024-03-25T13:34:44;1.00;1.00;1.00
84339;PMS7003;74521;45.618;5.212;2024-03-25T13:37:10;0.25;0.25;0.00
84339;PMS7003;74521;45.618;5.212;2024-03-25T13:39:36;0.00;0.00;0.00
84339;PMS7003;74521;45.618;5.212;2024-03-25T13:42:02;1.50;0.00;0.00
84339;PMS7003;74521;45.618;5.212;2024-03-25T13:44:28;1.75;0.00;0.00
84339;PMS7003;74521;45.618;5.212;2024-03-25T13:46:55;1.50;1.00;0.75
84339;PMS7003;74521;45.618;5.212;2024-03-25T13:49:21;0.00;0.00;0.00
84339;PMS7003;74521;45.618;5.212;2024-03-25T13:51:47;0.75;0.50;0.25
84339;PMS7003;74521;45.618;5.212;2024-03-25T13:54:13;0.00;0.00;0.00
84339;PMS7003;74521;45.618;5.212;2024-03-25T13:56:38;1.75;0.00;0.00
84339;PMS7003;74521;45.618;5.212;2024-03-25T13:59:04;0.00;0.00;0.00
84339;PMS7003;74521;45.618;5.212;2024-03-25T14:01:30;0.75;0.75;0.00
84339;PMS7003;74521;45.618;5.212;2024-03-25T14:03:57;0.00;0.00;0.00
84339;PMS7003;74521;45.618;5.212;2024-03-25T14:06:23;0.00;0.00;0.00
84339;PMS7003;74521;45.618;5.212;2024-03-25T14:08:48;0.00;0.00;0.00
84339;PMS7003;74521;45.618;5.212;2024-03-25T14:11:14;0.00;0.00;0.00
84339;PMS7003;74521;45.618;5.212;2024-03-25T14:13:40;0.00;0.00;0.00
84339;PMS7003;74521;45.618;5.212;2024-03-25T14:16:05;1.00;1.00;0.00
84339;PMS7003;74521;45.618;5.212;2024-03-25T14:18:31;0.50;0.00;0.00
84339;PMS7003;74521;45.618;5.212;2024-03-25T14:20:58;1.00;0.00;0.00